createdAt,value
2017-05-27T00:00:20.966Z,25.23
2017-05-27T00:01:30.701Z,25.27
2017-05-27T00:02:40.649Z,25.3
2017-05-27T00:03:50.572Z,25.18
2017-05-27T00:05:00.516Z,25.23
2017-05-27T00:06:09.525Z,25.2
2017-05-27T00:07:18.678Z,25.21
2017-05-27T00:08:28.314Z,25.18
2017-05-27T00:09:38.555Z,25.23
2017-05-27T00:10:48.787Z,25.23
2017-05-27T00:11:58.709Z,25.2
2017-05-27T00:13:09.028Z,25.17
2017-05-27T00:14:18.967Z,25.18
2017-05-27T00:15:28.588Z,25.1
2017-05-27T00:16:38.813Z,25.14
2017-05-27T00:17:48.769Z,25.17
2017-05-27T00:18:58.706Z,25.17
2017-05-27T00:20:08.645Z,25.1
2017-05-27T00:21:18.260Z,25.14
2017-05-27T00:22:27.584Z,25.14
2017-05-27T00:23:37.212Z,25.09
2017-05-27T00:24:47.496Z,25.06
2017-05-27T00:25:57.732Z,25.08
2017-05-27T00:27:06.732Z,25.09
2017-05-27T00:28:16.352Z,25.1
2017-05-27T00:29:26.603Z,25.09
2017-05-27T00:30:36.925Z,25.1
2017-05-27T00:31:46.856Z,25.14
2017-05-27T00:32:57.092Z,25.08
2017-05-27T00:34:07.338Z,25.09
2017-05-27T00:35:16.657Z,25.08
2017-05-27T00:36:25.963Z,25.08
2017-05-27T00:37:36.203Z,25.08
2017-05-27T00:38:46.520Z,25.09
2017-05-27T00:39:56.756Z,25.14
2017-05-27T00:41:06.682Z,25.02
2017-05-27T00:42:16.955Z,25.09
2017-05-27T00:43:26.576Z,25.05
2017-05-27T00:44:36.499Z,25.05
2017-05-27T00:45:46.731Z,25.09
2017-05-27T00:46:56.658Z,25.09
2017-05-27T00:48:06.628Z,25.06
2017-05-27T00:49:16.891Z,25.1
2017-05-27T00:50:27.137Z,25.1
2017-05-27T00:51:37.059Z,24.99
2017-05-27T00:52:46.383Z,25
2017-05-27T00:53:56.015Z,24.91
2017-05-27T00:55:06.247Z,24.96
2017-05-27T00:56:15.860Z,24.95
2017-05-27T00:57:25.499Z,24.9
2017-05-27T00:58:35.747Z,24.91
2017-05-27T00:59:46.144Z,24.96
2017-05-27T01:00:55.754Z,24.96
2017-05-27T01:02:05.692Z,24.96
2017-05-27T01:03:15.619Z,24.83
2017-05-27T01:04:24.941Z,24.85
2017-05-27T01:05:35.024Z,24.84
2017-05-27T01:06:44.942Z,24.81
2017-05-27T01:07:54.876Z,24.83
2017-05-27T01:09:04.804Z,24.8
2017-05-27T01:10:14.419Z,24.8
2017-05-27T01:11:24.802Z,24.78
2017-05-27T01:12:34.728Z,24.81
2017-05-27T01:13:44.967Z,24.8
2017-05-27T01:14:54.900Z,24.8
2017-05-27T01:16:04.515Z,24.85
2017-05-27T01:17:14.638Z,24.85
2017-05-27T01:18:24.277Z,24.87
2017-05-27T01:19:34.520Z,24.85
2017-05-27T01:20:44.442Z,24.87
2017-05-27T01:21:54.700Z,24.77
2017-05-27T01:23:05.079Z,24.77
2017-05-27T01:24:14.079Z,24.78
2017-05-27T01:25:23.700Z,24.84
2017-05-27T01:26:33.926Z,24.81
2017-05-27T01:27:43.857Z,24.8
2017-05-27T01:28:54.089Z,24.81
2017-05-27T01:30:04.010Z,24.9
2017-05-27T01:31:13.624Z,24.9
2017-05-27T01:32:23.567Z,24.84
2017-05-27T01:33:33.802Z,24.85
2017-05-27T01:34:43.729Z,24.91
2017-05-27T01:35:53.655Z,24.87
2017-05-27T01:37:03.893Z,24.87
2017-05-27T01:38:13.211Z,24.87
2017-05-27T01:39:23.137Z,24.83
2017-05-27T01:40:32.865Z,24.83
2017-05-27T01:41:43.100Z,24.83
2017-05-27T01:42:52.118Z,24.9
2017-05-27T01:44:02.052Z,24.81
2017-05-27T01:45:11.737Z,24.8
2017-05-27T01:46:22.135Z,24.84
2017-05-27T01:47:31.798Z,24.83
2017-05-27T01:48:41.736Z,24.8
2017-05-27T01:49:51.367Z,24.8
2017-05-27T01:51:00.984Z,24.83
2017-05-27T01:52:11.067Z,24.78
2017-05-27T01:53:21.039Z,24.81
2017-05-27T01:54:30.975Z,24.77
2017-05-27T01:55:40.901Z,24.8
2017-05-27T01:56:51.144Z,24.78
2017-05-27T01:58:01.086Z,24.83
2017-05-27T01:59:11.014Z,24.78
2017-05-27T02:00:20.943Z,24.8
2017-05-27T02:01:30.574Z,24.76
2017-05-27T02:02:40.523Z,24.83
2017-05-27T02:03:51.070Z,24.8
2017-05-27T02:05:00.388Z,24.76
2017-05-27T02:06:10.628Z,24.8
2017-05-27T02:07:19.620Z,24.78
2017-05-27T02:08:29.549Z,24.77
2017-05-27T02:09:38.918Z,24.71
2017-05-27T02:10:49.167Z,24.83
2017-05-27T02:11:59.106Z,24.76
2017-05-27T02:13:09.044Z,24.8
2017-05-27T02:14:18.975Z,24.8
2017-05-27T02:15:28.925Z,24.81
2017-05-27T02:16:38.846Z,24.77
2017-05-27T02:17:48.475Z,24.77
2017-05-27T02:18:57.794Z,24.76
2017-05-27T02:20:07.430Z,24.73
2017-05-27T02:21:17.164Z,24.77
2017-05-27T02:22:27.119Z,24.68
2017-05-27T02:23:37.054Z,24.71
2017-05-27T02:24:47.281Z,24.71
2017-05-27T02:25:56.592Z,24.73
2017-05-27T02:27:06.203Z,24.65
2017-05-27T02:28:16.130Z,24.69
2017-05-27T02:29:25.819Z,24.69
2017-05-27T02:30:35.669Z,24.67
2017-05-27T02:31:45.599Z,24.61
2017-05-27T02:32:55.678Z,24.71
2017-05-27T02:34:05.911Z,24.6
2017-05-27T02:35:15.840Z,24.65
2017-05-27T02:36:25.155Z,24.73
2017-05-27T02:37:35.392Z,24.61
2017-05-27T02:38:45.423Z,24.57
2017-05-27T02:39:55.038Z,24.55
2017-05-27T02:41:05.273Z,24.55
2017-05-27T02:42:15.194Z,24.53
2017-05-27T02:43:25.455Z,24.62
2017-05-27T02:44:35.486Z,24.53
2017-05-27T02:45:45.106Z,24.57
2017-05-27T02:46:54.727Z,24.47
2017-05-27T02:48:05.027Z,24.5
2017-05-27T02:49:14.953Z,24.42
2017-05-27T02:50:25.550Z,24.57
2017-05-27T02:51:35.800Z,24.46
2017-05-27T02:52:45.112Z,24.46
2017-05-27T02:53:55.739Z,24.47
2017-05-27T02:55:05.361Z,24.46
2017-05-27T02:56:15.324Z,24.52
2017-05-27T02:57:24.954Z,24.4
2017-05-27T02:58:35.189Z,24.39
2017-05-27T02:59:44.836Z,24.37
2017-05-27T03:00:55.070Z,24.4
2017-05-27T03:02:05.294Z,24.4
2017-05-27T03:03:15.222Z,24.32
2017-05-27T03:04:25.458Z,24.34
2017-05-27T03:05:35.393Z,24.43
2017-05-27T03:06:45.684Z,24.42
2017-05-27T03:07:55.952Z,24.32
2017-05-27T03:09:05.873Z,24.28
2017-05-27T03:10:15.809Z,24.39
2017-05-27T03:11:26.042Z,24.42
2017-05-27T03:12:36.286Z,24.39
2017-05-27T03:13:46.380Z,24.45
2017-05-27T03:14:57.013Z,24.42
2017-05-27T03:16:06.632Z,24.31
2017-05-27T03:17:15.944Z,24.32
2017-05-27T03:18:25.869Z,24.28
2017-05-27T03:19:35.922Z,24.34
2017-05-27T03:20:45.847Z,24.3
2017-05-27T03:21:55.168Z,24.31
2017-05-27T03:23:05.100Z,24.32
2017-05-27T03:24:15.028Z,24.2
2017-05-27T03:25:24.498Z,24.27
2017-05-27T03:26:34.442Z,24.15
2017-05-27T03:27:44.686Z,24.21
2017-05-27T03:28:54.623Z,24.16
2017-05-27T03:30:04.560Z,24.09
2017-05-27T03:31:14.234Z,24.2
2017-05-27T03:32:24.178Z,24.1
2017-05-27T03:33:34.122Z,24.08
2017-05-27T03:34:44.358Z,24.09
2017-05-27T03:35:54.592Z,24.06
2017-05-27T03:37:04.368Z,24.2
2017-05-27T03:38:13.988Z,24.1
2017-05-27T03:39:24.214Z,24.2
2017-05-27T03:40:34.139Z,24.2
2017-05-27T03:41:43.761Z,24.22
2017-05-27T03:42:53.704Z,24.1
2017-05-27T03:44:04.020Z,24.15
2017-05-27T03:45:13.645Z,24.1
2017-05-27T03:46:23.874Z,24.05
2017-05-27T03:47:33.482Z,24.05
2017-05-27T03:48:43.426Z,24.15
2017-05-27T03:49:53.353Z,24.08
2017-05-27T03:51:02.982Z,24.08
2017-05-27T03:52:12.594Z,24.15
2017-05-27T03:53:22.539Z,23.98
2017-05-27T03:54:31.951Z,24.21
2017-05-27T03:55:42.211Z,24.16
2017-05-27T03:56:52.455Z,24.08
2017-05-27T03:58:02.709Z,24.05
2017-05-27T03:59:12.653Z,24.02
2017-05-27T04:00:22.950Z,24.02
2017-05-27T04:01:32.878Z,24.15
2017-05-27T04:02:42.820Z,24.06
2017-05-27T04:03:52.452Z,24.12
2017-05-27T04:05:02.694Z,24.03
2017-05-27T04:06:12.760Z,24.1
2017-05-27T04:07:22.374Z,24.09
2017-05-27T04:08:32.642Z,24.09
2017-05-27T04:09:42.867Z,24.13
2017-05-27T04:10:53.093Z,23.91
2017-05-27T04:12:02.765Z,24.02
2017-05-27T04:13:13.001Z,24.09
2017-05-27T04:14:23.616Z,24.1
2017-05-27T04:15:32.925Z,24.09
2017-05-27T04:16:42.548Z,23.94
2017-05-27T04:17:52.489Z,23.94
2017-05-27T04:19:02.775Z,24.08
2017-05-27T04:20:12.702Z,24.08
2017-05-27T04:21:22.949Z,24.1
2017-05-27T04:22:32.888Z,24.09
2017-05-27T04:23:42.964Z,24.1
2017-05-27T04:24:52.912Z,24.08
2017-05-27T04:26:02.834Z,24.09
2017-05-27T04:27:12.169Z,24.09
2017-05-27T04:28:21.783Z,23.94
2017-05-27T04:29:32.175Z,24.15
2017-05-27T04:30:42.424Z,24.1
2017-05-27T04:31:52.042Z,24.08
2017-05-27T04:33:02.276Z,24.09
2017-05-27T04:34:12.529Z,24.06
2017-05-27T04:35:22.948Z,24.03
2017-05-27T04:36:32.571Z,24.18
2017-05-27T04:37:42.216Z,24.06
2017-05-27T04:38:51.853Z,24.05
2017-05-27T04:40:01.571Z,24.08
2017-05-27T04:41:10.949Z,24.15
2017-05-27T04:42:20.609Z,24.18
2017-05-27T04:43:30.545Z,24.16
2017-05-27T04:44:41.232Z,24.18
2017-05-27T04:45:50.879Z,24.18
2017-05-27T04:47:00.988Z,24.24
2017-05-27T04:48:10.932Z,24.2
2017-05-27T04:49:20.852Z,24.2
2017-05-27T04:50:30.808Z,24.2
2017-05-27T04:51:40.766Z,24.24
2017-05-27T04:52:50.435Z,24.12
2017-05-27T04:54:00.402Z,24.16
2017-05-27T04:55:10.684Z,24.2
2017-05-27T04:56:20.302Z,24.2
2017-05-27T04:57:29.929Z,24.21
2017-05-27T04:58:39.629Z,24.12
2017-05-27T04:59:49.604Z,24.21
2017-05-27T05:00:59.573Z,24.34
2017-05-27T05:02:08.605Z,24.31
2017-05-27T05:03:18.238Z,24.3
2017-05-27T05:04:28.521Z,24.35
2017-05-27T05:05:38.142Z,24.35
2017-05-27T05:06:48.101Z,24.4
2017-05-27T05:07:57.767Z,24.4
2017-05-27T05:09:07.990Z,24.43
2017-05-27T05:10:18.223Z,24.32
2017-05-27T05:11:28.167Z,24.45
2017-05-27T05:12:38.432Z,24.47
2017-05-27T05:13:49.134Z,24.53
2017-05-27T05:14:59.134Z,24.53
2017-05-27T05:16:09.650Z,24.69
2017-05-27T05:17:19.659Z,24.8
2017-05-27T05:18:29.668Z,24.84
2017-05-27T05:19:39.571Z,24.88
2017-05-27T05:20:49.550Z,25.09
2017-05-27T05:21:59.448Z,25.06
2017-05-27T05:23:10.221Z,25.2
2017-05-27T05:24:20.406Z,25.25
2017-05-27T05:25:31.123Z,25.35
2017-05-27T05:26:41.412Z,25.36
2017-05-27T05:27:50.797Z,25.47
2017-05-27T05:29:00.434Z,25.54
2017-05-27T05:30:10.363Z,25.6
2017-05-27T05:31:21.231Z,25.64
2017-05-27T05:32:30.893Z,25.76
2017-05-27T05:33:40.941Z,25.83
2017-05-27T05:34:50.877Z,25.91
2017-05-27T05:36:01.402Z,26.06
2017-05-27T05:37:12.070Z,25.97
2017-05-27T05:38:21.683Z,26.09
2017-05-27T05:39:31.302Z,26.12
2017-05-27T05:40:41.237Z,26.23
2017-05-27T05:41:51.751Z,26.33
2017-05-27T05:43:02.170Z,26.4
2017-05-27T05:44:12.476Z,26.4
2017-05-27T05:45:22.433Z,26.48
2017-05-27T05:46:32.434Z,26.57
2017-05-27T05:47:41.743Z,26.6
2017-05-27T05:48:51.978Z,26.73
2017-05-27T05:50:02.211Z,26.82
2017-05-27T05:51:12.131Z,26.77
2017-05-27T05:52:22.375Z,26.82
2017-05-27T05:53:31.993Z,26.99
2017-05-27T05:54:41.609Z,27.02
2017-05-27T05:55:51.528Z,27.07
2017-05-27T05:57:01.598Z,27.13
2017-05-27T05:58:11.814Z,27.28
2017-05-27T05:59:22.061Z,27.34
2017-05-27T06:00:32.298Z,27.32
2017-05-27T06:01:41.909Z,27.34
2017-05-27T06:02:51.676Z,27.51
2017-05-27T06:04:01.603Z,27.63
2017-05-27T06:05:11.215Z,27.72
2017-05-27T06:06:20.826Z,27.88
2017-05-27T06:07:30.449Z,27.84
2017-05-27T06:08:40.856Z,27.93
2017-05-27T06:09:50.461Z,28.04
2017-05-27T06:11:00.072Z,28.04
2017-05-27T06:12:10.308Z,28.09
2017-05-27T06:13:19.614Z,28.17
2017-05-27T06:14:29.279Z,28.21
2017-05-27T06:15:38.909Z,28.29
2017-05-27T06:16:48.823Z,28.33
2017-05-27T06:17:58.146Z,28.37
2017-05-27T06:19:08.428Z,28.37
2017-05-27T06:20:18.824Z,28.4
2017-05-27T06:21:29.066Z,28.39
2017-05-27T06:22:38.987Z,28.4
2017-05-27T06:23:48.618Z,28.36
2017-05-27T06:24:58.239Z,28.36
2017-05-27T06:26:08.196Z,28.37
2017-05-27T06:27:17.870Z,28.43
2017-05-27T06:28:27.490Z,28.31
2017-05-27T06:29:37.114Z,28.34
2017-05-27T06:30:46.784Z,28.37
2017-05-27T06:31:56.496Z,28.3
2017-05-27T06:33:06.409Z,28.22
2017-05-27T06:34:16.651Z,28.25
2017-05-27T06:35:26.581Z,28.21
2017-05-27T06:36:36.512Z,28.11
2017-05-27T06:37:46.588Z,28.07
2017-05-27T06:38:56.202Z,28.15
2017-05-27T06:40:05.827Z,28.06
2017-05-27T06:41:15.142Z,28.02
2017-05-27T06:42:25.072Z,27.92
2017-05-27T06:43:35.304Z,27.9
2017-05-27T06:44:45.238Z,27.78
2017-05-27T06:45:55.157Z,27.65
2017-05-27T06:47:05.375Z,27.6
2017-05-27T06:48:15.598Z,27.69
2017-05-27T06:49:25.257Z,27.65
2017-05-27T06:50:35.193Z,27.66
2017-05-27T06:51:45.415Z,27.84
2017-05-27T06:52:55.340Z,27.88
2017-05-27T06:54:05.569Z,28.04
2017-05-27T06:55:15.541Z,28.27
2017-05-27T06:56:25.520Z,28.51
2017-05-27T06:57:35.439Z,28.55
2017-05-27T06:58:45.390Z,28.89
2017-05-27T06:59:55.313Z,28.92
2017-05-27T07:01:05.546Z,29.26
2017-05-27T07:02:15.780Z,29.46
2017-05-27T07:03:25.714Z,29.65
2017-05-27T07:04:35.028Z,29.95
2017-05-27T07:05:44.955Z,30.26
2017-05-27T07:06:55.229Z,30.46
2017-05-27T07:08:05.151Z,30.77
2017-05-27T07:09:15.095Z,30.92
2017-05-27T07:10:24.731Z,31.13
2017-05-27T07:11:34.665Z,31.31
2017-05-27T07:12:44.129Z,31.69
2017-05-27T07:13:54.086Z,31.85
2017-05-27T07:15:04.008Z,32.07
2017-05-27T07:16:13.616Z,32.32
2017-05-27T07:17:23.546Z,32.47
2017-05-27T07:18:33.319Z,32.74
2017-05-27T07:19:42.977Z,33
2017-05-27T07:20:52.910Z,33.19
2017-05-27T07:22:03.138Z,33.44
2017-05-27T07:23:13.062Z,33.63
2017-05-27T07:24:23.387Z,33.81
2017-05-27T07:25:32.699Z,34.05
2017-05-27T07:26:42.940Z,34.32
2017-05-27T07:27:53.184Z,34.49
2017-05-27T07:29:03.100Z,34.72
2017-05-27T07:30:12.717Z,34.77
2017-05-27T07:31:22.346Z,34.92
2017-05-27T07:32:32.265Z,35.16
2017-05-27T07:33:42.187Z,35.37
2017-05-27T07:34:52.458Z,35.37
2017-05-27T07:36:02.381Z,35.58
2017-05-27T07:37:12.301Z,35.68
2017-05-27T07:38:22.526Z,35.81
2017-05-27T07:39:32.449Z,35.92
2017-05-27T07:40:42.066Z,36.07
2017-05-27T07:41:52.336Z,36.27
2017-05-27T07:43:02.561Z,36.31
2017-05-27T07:44:11.868Z,36.38
2017-05-27T07:45:21.801Z,36.54
2017-05-27T07:46:31.113Z,36.66
2017-05-27T07:47:40.771Z,36.78
2017-05-27T07:48:50.709Z,36.93
2017-05-27T07:50:00.938Z,37.05
2017-05-27T07:51:10.556Z,37.13
2017-05-27T07:52:20.170Z,37.24
2017-05-27T07:53:30.134Z,37.37
2017-05-27T07:54:39.132Z,37.39
2017-05-27T07:55:49.365Z,37.44
2017-05-27T07:56:58.990Z,37.59
2017-05-27T07:58:08.304Z,37.6
2017-05-27T07:59:18.702Z,37.66
2017-05-27T08:00:28.634Z,37.76
2017-05-27T08:01:38.265Z,37.84
2017-05-27T08:02:48.189Z,38.04
2017-05-27T08:03:58.115Z,38.06
2017-05-27T08:05:08.182Z,38.16
2017-05-27T08:06:17.793Z,38.25
2017-05-27T08:07:28.013Z,38.32
2017-05-27T08:08:38.241Z,38.4
2017-05-27T08:09:47.859Z,38.46
2017-05-27T08:10:57.471Z,38.42
2017-05-27T08:12:07.075Z,38.56
2017-05-27T08:13:16.419Z,38.6
2017-05-27T08:14:26.349Z,38.63
2017-05-27T08:15:36.570Z,38.66
2017-05-27T08:16:46.284Z,38.78
2017-05-27T08:17:56.210Z,38.79
2017-05-27T08:19:06.133Z,38.93
2017-05-27T08:20:15.807Z,38.96
2017-05-27T08:21:26.022Z,39.01
2017-05-27T08:22:35.814Z,39.09
2017-05-27T08:23:45.434Z,39.11
2017-05-27T08:24:55.661Z,39.16
2017-05-27T08:26:05.271Z,39.23
2017-05-27T08:27:14.945Z,39.29
2017-05-27T08:28:24.965Z,39.28
2017-05-27T08:29:34.609Z,39.23
2017-05-27T08:30:44.850Z,39.38
2017-05-27T08:31:54.493Z,39.32
2017-05-27T08:33:03.794Z,39.43
2017-05-27T08:34:13.875Z,39.47
2017-05-27T08:35:23.505Z,39.51
2017-05-27T08:36:33.419Z,39.52
2017-05-27T08:37:43.037Z,39.54
2017-05-27T08:38:53.312Z,39.5
2017-05-27T08:40:03.408Z,39.38
2017-05-27T08:41:13.326Z,39.1
2017-05-27T08:42:23.561Z,38.83
2017-05-27T08:43:33.171Z,38.38
2017-05-27T08:44:43.409Z,38.07
2017-05-27T08:45:53.691Z,37.57
2017-05-27T08:47:03.612Z,37.12
2017-05-27T08:48:13.541Z,36.69
2017-05-27T08:49:23.172Z,36.32
2017-05-27T08:50:32.787Z,35.94
2017-05-27T08:51:42.412Z,35.65
2017-05-27T08:52:52.653Z,35.29
2017-05-27T08:54:02.285Z,34.94
2017-05-27T08:55:12.209Z,34.62
2017-05-27T08:56:22.144Z,34.34
2017-05-27T08:57:32.178Z,34.02
2017-05-27T08:58:41.792Z,33.79
2017-05-27T08:59:51.708Z,33.45
2017-05-27T09:01:01.636Z,33.28
2017-05-27T09:02:10.957Z,32.94
2017-05-27T09:03:20.648Z,32.85
2017-05-27T09:04:30.934Z,32.56
2017-05-27T09:05:41.309Z,32.41
2017-05-27T09:06:51.554Z,32.18
2017-05-27T09:08:01.793Z,31.95
2017-05-27T09:09:11.124Z,31.62
2017-05-27T09:10:21.047Z,31.5
2017-05-27T09:11:30.977Z,31.36
2017-05-27T09:12:41.002Z,31.25
2017-05-27T09:13:50.636Z,31.09
2017-05-27T09:15:00.879Z,30.86
2017-05-27T09:16:10.484Z,30.8
2017-05-27T09:17:20.096Z,30.64
2017-05-27T09:18:30.323Z,30.51
2017-05-27T09:19:40.245Z,30.37
2017-05-27T09:20:50.184Z,30.29
2017-05-27T09:22:00.108Z,30.13
2017-05-27T09:23:09.418Z,30.01
2017-05-27T09:24:19.651Z,29.9
2017-05-27T09:25:29.277Z,29.76
2017-05-27T09:26:39.199Z,29.65
2017-05-27T09:27:49.132Z,29.67
2017-05-27T09:28:58.459Z,29.63
2017-05-27T09:30:08.691Z,29.55
2017-05-27T09:31:18.002Z,29.39
2017-05-27T09:32:27.619Z,29.33
2017-05-27T09:33:37.235Z,29.28
2017-05-27T09:34:47.239Z,29.21
2017-05-27T09:35:57.473Z,29.12
2017-05-27T09:37:07.086Z,29.05
2017-05-27T09:38:16.697Z,29
2017-05-27T09:39:26.617Z,29.04
2017-05-27T09:40:36.536Z,28.88
2017-05-27T09:41:46.804Z,28.81
2017-05-27T09:42:56.736Z,28.78
2017-05-27T09:44:06.348Z,28.68
2017-05-27T09:45:15.974Z,28.67
2017-05-27T09:46:25.897Z,28.66
2017-05-27T09:47:35.826Z,28.62
2017-05-27T09:48:46.047Z,28.55
2017-05-27T09:49:55.684Z,28.51
2017-05-27T09:51:05.304Z,28.55
2017-05-27T09:52:15.240Z,28.41
2017-05-27T09:53:24.871Z,28.36
2017-05-27T09:54:34.503Z,28.4
2017-05-27T09:55:43.825Z,28.37
2017-05-27T09:56:52.832Z,28.31
2017-05-27T09:58:02.781Z,28.27
2017-05-27T09:59:12.398Z,28.18
2017-05-27T10:00:21.409Z,28.18
2017-05-27T10:01:31.022Z,28.24
2017-05-27T10:02:40.019Z,28.15
2017-05-27T10:03:49.054Z,28.12
2017-05-27T10:04:58.720Z,28.12
2017-05-27T10:06:08.031Z,28.04
2017-05-27T10:07:17.052Z,28.02
2017-05-27T10:08:26.086Z,28.06
2017-05-27T10:09:35.713Z,27.99
2017-05-27T10:10:45.327Z,28.04
2017-05-27T10:11:55.236Z,27.99
2017-05-27T10:13:05.151Z,27.99
2017-05-27T10:14:14.763Z,27.97
2017-05-27T10:15:24.389Z,27.9
2017-05-27T10:16:34.626Z,27.9
2017-05-27T10:17:44.558Z,27.92
2017-05-27T10:18:54.174Z,27.82
2017-05-27T10:20:04.407Z,27.82
2017-05-27T10:21:13.710Z,27.85
2017-05-27T10:22:23.935Z,27.82
2017-05-27T10:23:34.152Z,27.85
2017-05-27T10:24:44.382Z,27.84
2017-05-27T10:25:54.308Z,27.82
2017-05-27T10:27:04.243Z,27.81
2017-05-27T10:28:13.565Z,27.82
2017-05-27T10:29:23.179Z,27.75
2017-05-27T10:30:33.112Z,27.79
2017-05-27T10:31:43.352Z,27.74
2017-05-27T10:32:52.669Z,27.67
2017-05-27T10:34:02.603Z,27.7
2017-05-27T10:35:12.522Z,27.63
2017-05-27T10:36:22.429Z,27.69
2017-05-27T10:37:31.725Z,27.77
2017-05-27T10:38:40.408Z,27.65
2017-05-27T10:39:50.342Z,27.66
2017-05-27T10:40:59.954Z,27.69
2017-05-27T10:42:10.187Z,27.69
2017-05-27T10:43:19.508Z,27.66
2017-05-27T10:44:29.438Z,27.66
2017-05-27T10:45:39.665Z,27.63
2017-05-27T10:46:49.587Z,27.72
2017-05-27T10:47:59.203Z,27.63
2017-05-27T10:49:08.830Z,27.66
2017-05-27T10:50:19.063Z,27.74
2017-05-27T10:51:29.319Z,27.63
2017-05-27T10:52:39.239Z,27.67
2017-05-27T10:53:48.860Z,27.69
2017-05-27T10:54:58.788Z,27.66
2017-05-27T10:56:09.010Z,27.63
2017-05-27T10:57:18.947Z,27.66
2017-05-27T10:58:28.567Z,27.63
2017-05-27T10:59:38.177Z,27.65
2017-05-27T11:00:48.086Z,27.6
2017-05-27T11:01:58.316Z,27.74
2017-05-27T11:03:08.231Z,27.6
2017-05-27T11:04:18.163Z,27.57
2017-05-27T11:05:28.081Z,27.62
2017-05-27T11:06:37.997Z,27.6
2017-05-27T11:07:47.313Z,27.54
2017-05-27T11:08:56.618Z,27.54
2017-05-27T11:10:05.982Z,27.57
2017-05-27T11:11:15.290Z,27.54
2017-05-27T11:12:25.202Z,27.49
2017-05-27T11:13:35.436Z,27.51
2017-05-27T11:14:45.353Z,27.49
2017-05-27T11:15:54.959Z,27.54
2017-05-27T11:17:05.176Z,27.5
2017-05-27T11:18:15.105Z,27.44
2017-05-27T11:19:24.728Z,27.5
2017-05-27T11:20:34.948Z,27.5
2017-05-27T11:21:45.176Z,27.4
2017-05-27T11:22:55.096Z,27.37
2017-05-27T11:24:04.408Z,27.37
2017-05-27T11:25:14.323Z,27.4
2017-05-27T11:26:23.333Z,27.39
2017-05-27T11:27:33.150Z,27.44
2017-05-27T11:28:42.761Z,27.39
2017-05-27T11:29:52.366Z,27.43
2017-05-27T11:31:02.284Z,27.43
2017-05-27T11:32:12.211Z,27.37
2017-05-27T11:33:22.133Z,27.44
2017-05-27T11:34:32.052Z,27.34
2017-05-27T11:35:41.989Z,27.4
2017-05-27T11:36:51.914Z,27.41
2017-05-27T11:38:01.834Z,27.43
2017-05-27T11:39:12.073Z,27.41
2017-05-27T11:40:21.692Z,27.41
2017-05-27T11:41:31.367Z,27.4
2017-05-27T11:42:40.972Z,27.4
2017-05-27T11:43:51.193Z,27.43
2017-05-27T11:45:00.486Z,27.39
2017-05-27T11:46:10.712Z,27.36
2017-05-27T11:47:20.017Z,27.4
2017-05-27T11:48:29.321Z,27.43
2017-05-27T11:49:39.241Z,27.34
2017-05-27T11:50:49.475Z,27.28
2017-05-27T11:51:59.409Z,27.34
2017-05-27T11:53:08.404Z,27.39
2017-05-27T11:54:18.017Z,27.32
2017-05-27T11:55:28.235Z,27.4
2017-05-27T11:56:37.847Z,27.34
2017-05-27T11:57:47.766Z,27.32
2017-05-27T11:58:57.382Z,27.32
2017-05-27T12:00:07.301Z,27.36
2017-05-27T12:01:16.293Z,27.31
2017-05-27T12:02:26.211Z,27.32
2017-05-27T12:03:36.130Z,27.34
2017-05-27T12:04:46.367Z,27.32
2017-05-27T12:05:56.293Z,27.29
2017-05-27T12:07:05.613Z,27.29
2017-05-27T12:08:14.924Z,27.31
2017-05-27T12:09:24.540Z,27.4
2017-05-27T12:10:34.768Z,27.36
2017-05-27T12:11:45.568Z,27.34
2017-05-27T12:12:55.494Z,27.31
2017-05-27T12:14:05.717Z,27.36
2017-05-27T12:15:15.640Z,27.27
2017-05-27T12:16:25.250Z,27.28
2017-05-27T12:17:34.923Z,27.36
2017-05-27T12:18:44.620Z,27.34
2017-05-27T12:19:54.857Z,27.34
2017-05-27T12:21:05.662Z,27.4
2017-05-27T12:22:15.902Z,27.36
2017-05-27T12:23:25.287Z,27.32
2017-05-27T12:24:35.287Z,27.34
2017-05-27T12:25:45.290Z,27.34
2017-05-27T12:26:55.211Z,27.29
2017-05-27T12:28:05.134Z,27.27
2017-05-27T12:29:15.742Z,27.29
2017-05-27T12:30:26.758Z,27.28
2017-05-27T12:31:37.186Z,27.34
2017-05-27T12:32:46.828Z,27.28
2017-05-27T12:33:56.769Z,27.27
2017-05-27T12:35:06.766Z,27.34
2017-05-27T12:36:16.703Z,27.36
2017-05-27T12:37:27.046Z,27.34
2017-05-27T12:38:36.661Z,27.36
2017-05-27T12:39:46.276Z,27.31
2017-05-27T12:40:56.517Z,27.37
2017-05-27T12:42:06.462Z,27.37
2017-05-27T12:43:16.372Z,27.34
2017-05-27T12:44:26.274Z,27.34
2017-05-27T12:45:36.350Z,27.32
2017-05-27T12:46:46.346Z,27.36
2017-05-27T12:47:56.761Z,27.34
2017-05-27T12:49:06.993Z,27.39
2017-05-27T12:50:16.916Z,27.29
2017-05-27T12:51:26.366Z,27.4
2017-05-27T12:52:35.990Z,27.43
2017-05-27T12:53:46.610Z,27.43
2017-05-27T12:54:55.766Z,27.46
2017-05-27T12:56:04.869Z,27.47
2017-05-27T12:57:14.496Z,27.46
2017-05-27T12:58:23.563Z,27.34
2017-05-27T12:59:32.257Z,27.4
2017-05-27T13:00:41.814Z,27.43
2017-05-27T13:01:51.211Z,27.43
2017-05-27T13:03:00.597Z,27.46
2017-05-27T13:04:10.525Z,27.46
2017-05-27T13:05:20.147Z,27.51
2017-05-27T13:06:29.389Z,27.47
2017-05-27T13:07:39.431Z,27.47
2017-05-27T13:08:49.118Z,27.47
2017-05-27T13:09:58.823Z,27.49
2017-05-27T13:11:08.889Z,27.44
2017-05-27T13:12:19.069Z,27.5
2017-05-27T13:13:28.920Z,27.44
2017-05-27T13:14:38.931Z,27.46
2017-05-27T13:15:49.169Z,27.54
2017-05-27T13:16:59.339Z,27.57
2017-05-27T13:18:08.700Z,27.54
2017-05-27T13:19:18.630Z,27.55
2017-05-27T13:20:28.248Z,27.57
2017-05-27T13:21:38.166Z,27.51
2017-05-27T13:22:47.886Z,27.57
2017-05-27T13:23:57.802Z,27.57
2017-05-27T13:25:08.505Z,27.6
2017-05-27T13:26:18.120Z,27.54
2017-05-27T13:27:28.820Z,27.54
2017-05-27T13:28:38.732Z,27.59
2017-05-27T13:29:48.706Z,27.57
2017-05-27T13:30:58.407Z,27.63
2017-05-27T13:32:08.258Z,27.69
2017-05-27T13:33:17.873Z,27.62
2017-05-27T13:34:28.295Z,27.62
2017-05-27T13:35:37.449Z,27.7
2017-05-27T13:36:47.397Z,27.66
2017-05-27T13:37:57.877Z,27.63
2017-05-27T13:39:07.300Z,27.69
2017-05-27T13:40:16.981Z,27.69
2017-05-27T13:41:27.376Z,27.66
2017-05-27T13:42:38.419Z,27.66
2017-05-27T13:43:48.741Z,27.7
2017-05-27T13:44:58.743Z,27.65
2017-05-27T13:46:08.120Z,27.69
2017-05-27T13:47:17.882Z,27.69
2017-05-27T13:48:28.541Z,27.7
2017-05-27T13:49:38.635Z,27.7
2017-05-27T13:50:48.333Z,27.7
2017-05-27T13:51:58.591Z,27.75
2017-05-27T13:53:07.985Z,27.7
2017-05-27T13:54:17.971Z,27.66
2017-05-27T13:55:27.995Z,27.63
2017-05-27T13:56:38.169Z,27.67
2017-05-27T13:57:48.508Z,27.69
2017-05-27T13:58:59.380Z,27.66
2017-05-27T14:00:09.167Z,27.72
2017-05-27T14:01:19.468Z,27.62
2017-05-27T14:02:29.782Z,27.69
2017-05-27T14:03:40.413Z,27.72
2017-05-27T14:04:50.652Z,27.72
2017-05-27T14:06:00.957Z,27.69
2017-05-27T14:07:11.617Z,27.69
2017-05-27T14:08:21.310Z,27.79
2017-05-27T14:09:30.975Z,27.75
2017-05-27T14:10:41.582Z,27.74
2017-05-27T14:11:51.916Z,27.75
2017-05-27T14:13:01.284Z,27.78
2017-05-27T14:14:11.294Z,27.79
2017-05-27T14:15:21.297Z,27.78
2017-05-27T14:16:31.927Z,27.79
2017-05-27T14:17:41.881Z,27.82
2017-05-27T14:18:52.052Z,27.84
2017-05-27T14:20:02.413Z,27.81
2017-05-27T14:21:13.031Z,27.81
2017-05-27T14:22:22.958Z,27.78
2017-05-27T14:23:32.882Z,27.79
2017-05-27T14:24:42.806Z,27.78
2017-05-27T14:25:53.053Z,27.82
2017-05-27T14:27:02.686Z,27.82
2017-05-27T14:28:12.389Z,27.82
2017-05-27T14:29:22.096Z,27.82
2017-05-27T14:30:32.345Z,27.82
2017-05-27T14:31:42.649Z,27.82
2017-05-27T14:32:52.903Z,27.79
2017-05-27T14:34:02.234Z,27.9
2017-05-27T14:35:12.721Z,27.82
2017-05-27T14:36:23.223Z,27.81
2017-05-27T14:37:32.331Z,27.81
2017-05-27T14:38:42.658Z,27.85
2017-05-27T14:39:53.022Z,27.81
2017-05-27T14:41:02.967Z,27.81
2017-05-27T14:42:13.135Z,27.84
2017-05-27T14:43:22.848Z,27.82
2017-05-27T14:44:33.210Z,27.84
2017-05-27T14:45:42.241Z,27.87
2017-05-27T14:46:52.576Z,27.84
2017-05-27T14:48:02.209Z,27.88
2017-05-27T14:49:12.461Z,27.82
2017-05-27T14:50:22.607Z,27.78
2017-05-27T14:51:32.100Z,27.79
2017-05-27T14:52:42.351Z,27.82
2017-05-27T14:53:51.370Z,27.79
2017-05-27T14:55:01.085Z,27.81
2017-05-27T14:56:11.126Z,27.88
2017-05-27T14:57:21.429Z,27.84
2017-05-27T14:58:31.741Z,27.79
2017-05-27T14:59:41.916Z,27.87
2017-05-27T15:00:52.245Z,27.81
2017-05-27T15:02:02.264Z,27.82
2017-05-27T15:03:12.520Z,27.84
2017-05-27T15:04:22.461Z,27.82